Time;durP1;ratioP1;P1;durP2;ratioP2;P2;SDS_P1;SDS_P2;PMS_P1;PMS_P2;Temp;Humidity;BMP_temperature;BMP_pressure;BME280_temperature;BME280_humidity;BME280_pressure;Samples;Min_cycle;Max_cycle;Signal;HPM_P1;HPM_P2
2022/06/03 00:01:39;;;;;;;5.93;3.80;;;9.80;99.90;;;;;;4847186;29;20438;-76
2022/06/03 00:04:33;;;;;;;4.68;3.70;;;9.80;99.90;;;;;;4862256;29;20036;-76
2022/06/03 00:07:32;;;;;;;4.95;3.90;;;9.80;99.90;;;;;;4852319;29;20476;-76
2022/06/03 00:10:29;;;;;;;5.28;3.72;;;9.80;99.90;;;;;;4828487;29;20053;-76
2022/06/03 00:13:24;;;;;;;6.05;3.83;;;9.80;99.90;;;;;;4878791;29;20415;-76
2022/06/03 00:16:09;;;;;;;3.83;3.25;;;9.80;99.90;;;;;;4853547;29;20149;-76
2022/06/03 00:18:53;;;;;;;4.65;3.63;;;9.70;99.90;;;;;;4850080;29;20044;-76
2022/06/03 00:21:54;;;;;;;6.18;3.83;;;9.60;99.90;;;;;;4874296;29;20120;-76
2022/06/03 00:24:57;;;;;;;6.82;4.38;;;9.50;99.90;;;;;;4879549;29;20053;-76
2022/06/03 00:27:44;;;;;;;5.45;4.10;;;9.50;99.90;;;;;;4853819;29;20055;-76
2022/06/03 00:30:39;;;;;;;6.35;3.92;;;9.50;99.90;;;;;;4865074;29;20113;-76
2022/06/03 00:33:20;;;;;;;6.35;3.78;;;9.50;99.90;;;;;;4895368;29;20128;-76
2022/06/03 00:36:16;;;;;;;5.20;4.50;;;9.50;99.90;;;;;;4858206;29;20567;-76
2022/06/03 00:38:52;;;;;;;6.25;4.07;;;9.50;99.90;;;;;;4857420;29;20052;-76
2022/06/03 00:42:21;;;;;;;5.20;3.78;;;9.40;99.90;;;;;;4854524;29;20575;-76
2022/06/03 00:45:12;;;;;;;5.50;3.90;;;9.40;99.90;;;;;;4831863;29;20462;-76
2022/06/03 00:47:55;;;;;;;5.55;4.10;;;9.40;99.90;;;;;;4852318;29;20045;-77
2022/06/03 00:51:03;;;;;;;5.90;3.88;;;9.40;99.90;;;;;;4855698;29;20057;-76
2022/06/03 00:53:41;;;;;;;5.75;3.97;;;9.40;99.90;;;;;;4874640;29;20686;-76
2022/06/03 00:56:38;;;;;;;5.43;3.92;;;9.40;99.90;;;;;;4854832;29;20095;-76
2022/06/03 00:59:25;;;;;;;4.03;3.47;;;9.30;99.90;;;;;;4864766;29;20044;-76
2022/06/03 01:02:03;;;;;;;6.22;3.90;;;9.30;99.90;;;;;;4861039;29;20049;-76
2022/06/03 01:04:50;;;;;;;4.80;3.65;;;9.30;99.90;;;;;;4866061;29;20049;-76
2022/06/03 01:07:16;;;;;;;7.70;4.22;;;9.30;99.90;;;;;;4865891;29;20520;-76
2022/06/03 01:09:54;;;;;;;6.95;4.00;;;9.20;99.90;;;;;;4844091;29;20037;-76
2022/06/03 01:12:27;;;;;;;4.65;4.03;;;9.30;99.90;;;;;;4861684;29;20519;-76
2022/06/03 01:15:07;;;;;;;5.63;3.90;;;9.20;99.90;;;;;;4875809;29;20109;-76
2022/06/03 01:17:33;;;;;;;5.63;4.32;;;9.20;99.90;;;;;;4852894;29;20148;-76
2022/06/03 01:20:28;;;;;;;5.78;3.88;;;9.20;99.90;;;;;;4852736;29;20135;-76
2022/06/03 01:23:13;;;;;;;9.88;4.03;;;9.10;99.90;;;;;;4850236;29;20041;-76
2022/06/03 01:25:53;;;;;;;9.10;4.50;;;9.10;99.90;;;;;;4848464;29;20056;-76
2022/06/03 01:28:25;;;;;;;6.72;4.53;;;9.00;99.90;;;;;;4855750;29;20564;-76
2022/06/03 01:31:26;;;;;;;6.55;4.25;;;9.00;99.90;;;;;;4883696;29;20048;-76
2022/06/03 01:34:00;;;;;;;6.57;4.53;;;9.00;99.90;;;;;;4837799;29;1162175;-76
2022/06/03 01:36:38;;;;;;;5.78;4.45;;;8.90;99.90;;;;;;4855176;29;20048;-76
2022/06/03 01:39:39;;;;;;;8.63;4.43;;;8.90;99.90;;;;;;4864065;29;20542;-76
2022/06/03 01:42:23;;;;;;;6.22;3.63;;;8.90;99.90;;;;;;4863973;29;20415;-76
2022/06/03 01:45:04;;;;;;;6.03;4.78;;;8.80;99.90;;;;;;4867466;29;20083;-76
2022/06/03 01:47:59;;;;;;;6.03;4.20;;;8.70;99.90;;;;;;4870889;29;20504;-76
2022/06/03 01:50:36;;;;;;;6.53;4.70;;;8.70;99.90;;;;;;4854965;29;20072;-76
2022/06/03 01:53:35;;;;;;;6.30;5.18;;;8.60;99.90;;;;;;4864271;29;20048;-76
2022/06/03 01:56:31;;;;;;;8.70;5.25;;;8.60;99.90;;;;;;4864193;29;20091;-76
2022/06/03 01:59:12;;;;;;;6.75;4.88;;;8.60;99.90;;;;;;4859387;29;20127;-76
2022/06/03 02:02:21;;;;;;;7.30;5.22;;;8.60;99.90;;;;;;4847251;29;20032;-76
2022/06/03 02:05:11;;;;;;;7.82;5.28;;;8.60;99.90;;;;;;4854203;29;20041;-76
2022/06/03 02:07:40;;;;;;;6.15;5.20;;;8.60;99.90;;;;;;4865178;29;20037;-76
2022/06/03 02:11:00;;;;;;;8.15;5.22;;;8.50;99.90;;;;;;4849089;29;20071;-76
2022/06/03 02:14:08;;;;;;;6.50;4.82;;;8.50;99.90;;;;;;4819036;29;20102;-76
2022/06/03 02:17:12;;;;;;;6.72;5.25;;;8.50;99.90;;;;;;4885630;29;20488;-76
2022/06/03 02:20:15;;;;;;;7.93;4.82;;;8.40;99.90;;;;;;4830303;29;20057;-76
2022/06/03 02:23:11;;;;;;;8.77;5.20;;;8.40;99.90;;;;;;4845485;29;20045;-76
2022/06/03 02:26:03;;;;;;;6.22;4.85;;;8.30;99.90;;;;;;4863115;29;20088;-76
2022/06/03 02:28:38;;;;;;;5.28;4.53;;;8.30;99.90;;;;;;4872431;29;20059;-76
2022/06/03 02:31:39;;;;;;;6.57;5.22;;;8.20;99.90;;;;;;4863864;29;20420;-76
2022/06/03 02:34:23;;;;;;;7.30;5.40;;;8.10;99.90;;;;;;4848743;29;20048;-76
2022/06/03 02:37:32;;;;;;;7.20;5.63;;;8.10;99.90;;;;;;4871299;29;20131;-76
2022/06/03 02:40:27;;;;;;;7.15;4.90;;;8.10;99.90;;;;;;4839849;29;20045;-76
2022/06/03 02:43:31;;;;;;;7.90;6.10;;;8.00;99.90;;;;;;4842596;29;20571;-76
2022/06/03 02:46:16;;;;;;;6.47;5.07;;;8.00;99.90;;;;;;4845308;29;20079;-76
2022/06/03 02:48:42;;;;;;;9.10;6.18;;;8.00;99.90;;;;;;4860171;29;20075;-76
2022/06/03 02:51:42;;;;;;;9.13;6.30;;;7.90;99.90;;;;;;4894436;29;20084;-76
2022/06/03 02:54:46;;;;;;;8.32;6.03;;;7.90;99.90;;;;;;4862780;29;20123;-76
2022/06/03 02:57:34;;;;;;;8.63;6.47;;;7.90;99.90;;;;;;4869045;29;20313;-76
2022/06/03 03:00:15;;;;;;;10.65;7.07;;;7.90;99.90;;;;;;4882546;29;20087;-76
2022/06/03 03:03:25;;;;;;;9.38;6.38;;;7.90;99.90;;;;;;4881992;29;20060;-76
2022/06/03 03:05:55;;;;;;;8.70;6.22;;;7.90;99.90;;;;;;4853725;29;20586;-76
2022/06/03 03:08:40;;;;;;;10.43;7.30;;;8.00;99.90;;;;;;4861271;29;20101;-76
2022/06/03 03:11:39;;;;;;;9.85;7.45;;;7.90;99.90;;;;;;4879549;29;20049;-76
2022/06/03 03:14:20;;;;;;;11.25;6.80;;;8.00;99.90;;;;;;4860155;29;20041;-76
2022/06/03 03:17:10;;;;;;;9.55;6.65;;;8.00;99.90;;;;;;4871496;29;20055;-76
2022/06/03 03:20:21;;;;;;;9.07;6.95;;;8.00;99.90;;;;;;4857550;29;20048;-76
2022/06/03 03:23:25;;;;;;;10.02;6.82;;;8.00;99.90;;;;;;4849903;29;20044;-76
2022/06/03 03:26:09;;;;;;;10.25;6.95;;;8.00;99.90;;;;;;4852430;29;20049;-76
2022/06/03 03:29:05;;;;;;;8.98;6.88;;;8.00;99.90;;;;;;4858317;29;20056;-76
2022/06/03 03:31:50;;;;;;;12.07;7.13;;;8.00;99.90;;;;;;4848390;29;20123;-76
2022/06/03 03:34:16;;;;;;;9.98;6.55;;;8.10;99.90;;;;;;4871062;29;20041;-76
2022/06/03 03:37:16;;;;;;;8.80;6.85;;;8.10;99.90;;;;;;4854823;29;20097;-76
2022/06/03 03:40:12;;;;;;;11.48;7.35;;;8.10;99.90;;;;;;4844613;29;20049;-76
2022/06/03 03:43:18;;;;;;;10.10;7.15;;;8.20;99.90;;;;;;4843881;29;20489;-76
2022/06/03 03:45:59;;;;;;;10.85;7.70;;;8.20;99.90;;;;;;4857483;29;20079;-76
2022/06/03 03:49:09;;;;;;;10.43;7.47;;;8.30;99.90;;;;;;4857562;29;20534;-76
2022/06/03 03:52:11;;;;;;;8.32;6.63;;;8.30;99.90;;;;;;4865724;29;20045;-76
2022/06/03 03:54:59;;;;;;;9.68;7.30;;;8.40;99.90;;;;;;4877776;29;20098;-76
2022/06/03 03:57:54;;;;;;;9.32;6.70;;;8.40;99.90;;;;;;4856165;29;20109;-76
2022/06/03 04:00:45;;;;;;;9.73;6.88;;;8.40;99.90;;;;;;4878100;29;20492;-76
2022/06/03 04:03:30;;;;;;;8.93;6.97;;;8.50;99.90;;;;;;4862627;29;20123;-76
2022/06/03 04:06:17;;;;;;;10.20;7.10;;;8.60;99.90;;;;;;4852696;29;20116;-76
2022/06/03 04:08:55;;;;;;;9.80;6.95;;;8.60;99.90;;;;;;4858799;29;20045;-77
2022/06/03 04:11:46;;;;;;;7.90;6.47;;;8.70;99.90;;;;;;4865429;29;20461;-76
2022/06/03 04:14:24;;;;;;;8.57;6.70;;;8.80;99.90;;;;;;4862634;29;20040;-76
2022/06/03 04:17:15;;;;;;;8.00;6.82;;;8.80;99.90;;;;;;4854105;29;20041;-76
2022/06/03 04:19:59;;;;;;;8.77;6.75;;;8.90;99.90;;;;;;4865305;29;20052;-76
2022/06/03 04:22:59;;;;;;;8.82;6.60;;;9.10;99.90;;;;;;4873130;29;20037;-76
2022/06/03 04:25:55;;;;;;;6.63;5.82;;;9.20;99.90;;;;;;4856819;29;20045;-76
2022/06/03 04:28:24;;;;;;;7.57;5.90;;;9.50;99.90;;;;;;4872999;29;20131;-76
2022/06/03 04:31:28;;;;;;;9.75;6.20;;;9.80;99.90;;;;;;4880392;29;20051;-76
2022/06/03 04:34:17;;;;;;;8.75;6.15;;;10.20;99.90;;;;;;4880336;29;20049;-76
2022/06/03 04:37:16;;;;;;;8.75;5.22;;;10.60;99.90;;;;;;4865622;29;20135;-77
2022/06/03 04:40:00;;;;;;;11.63;5.50;;;10.90;99.90;;;;;;4885125;29;20048;-77
2022/06/03 04:43:01;;;;;;;6.40;5.32;;;11.30;99.90;;;;;;4870701;29;20045;-76
2022/06/03 04:46:02;;;;;;;6.43;4.90;;;11.60;99.90;;;;;;4858101;29;20051;-77
2022/06/03 04:48:56;;;;;;;6.05;4.95;;;12.10;99.90;;;;;;4867355;29;20053;-76
2022/06/03 04:51:43;;;;;;;7.72;5.45;;;12.40;99.90;;;;;;4887271;29;20040;-77
2022/06/03 04:54:27;;;;;;;7.47;4.93;;;12.70;99.90;;;;;;4849985;29;20096;-77
2022/06/03 04:57:31;;;;;;;5.57;4.85;;;13.00;99.90;;;;;;4874364;29;20045;-77
2022/06/03 05:00:25;;;;;;;5.43;4.80;;;13.40;99.90;;;;;;4836206;29;20049;-77
2022/06/03 05:03:28;;;;;;;6.93;4.85;;;13.70;99.90;;;;;;4850119;29;20100;-77
2022/06/03 05:06:18;;;;;;;5.60;4.15;;;14.00;99.90;;;;;;4845793;29;20112;-77
2022/06/03 05:09:18;;;;;;;5.25;4.43;;;14.10;99.90;;;;;;4853040;29;20531;-77
2022/06/03 05:12:31;;;;;;;6.55;4.18;;;14.10;99.90;;;;;;4882922;29;20127;-77
2022/06/03 05:15:18;;;;;;;5.57;3.90;;;14.10;99.90;;;;;;4870203;29;20052;-77
2022/06/03 05:18:01;;;;;;;5.03;3.92;;;14.20;99.90;;;;;;4850421;29;20551;-77
2022/06/03 05:20:43;;;;;;;4.75;4.05;;;14.20;99.90;;;;;;4865094;29;20056;-77
2022/06/03 05:23:28;;;;;;;4.85;3.78;;;14.30;99.90;;;;;;4859620;29;20044;-77
2022/06/03 05:25:56;;;;;;;7.03;4.13;;;14.60;99.90;;;;;;4853084;29;20040;-77
2022/06/03 05:28:47;;;;;;;5.93;3.80;;;14.80;99.90;;;;;;4853832;29;20127;-77
2022/06/03 05:31:34;;;;;;;5.88;3.97;;;14.90;99.90;;;;;;4850673;29;20048;-77
2022/06/03 05:34:16;;;;;;;5.43;4.05;;;15.20;99.90;;;;;;4856644;29;20048;-77
2022/06/03 05:37:02;;;;;;;5.57;3.42;;;15.40;99.90;;;;;;4880878;29;20040;-77
2022/06/03 05:39:47;;;;;;;7.05;4.00;;;15.70;99.90;;;;;;4873510;29;20041;-78
2022/06/03 05:42:25;;;;;;;5.28;3.28;;;16.00;99.90;;;;;;4855137;29;20044;-77
2022/06/03 05:45:28;;;;;;;5.22;3.58;;;16.10;99.90;;;;;;4889680;29;20048;-78
2022/06/03 05:48:03;;;;;;;4.60;3.67;;;16.20;99.90;;;;;;4869916;29;20045;-78
2022/06/03 05:50:51;;;;;;;4.75;3.60;;;16.50;99.90;;;;;;4858271;29;20092;-78
2022/06/03 05:53:25;;;;;;;5.28;3.67;;;16.90;99.90;;;;;;4853992;29;20461;-78
2022/06/03 05:56:32;;;;;;;4.35;3.50;;;17.00;99.90;;;;;;4848596;29;20094;-77
2022/06/03 05:59:07;;;;;;;3.63;2.90;;;16.90;99.90;;;;;;4826654;29;20049;-77
2022/06/03 06:01:56;;;;;;;4.72;3.50;;;16.40;99.90;;;;;;4872673;29;20040;-78
2022/06/03 06:04:26;;;;;;;5.00;4.05;;;15.90;99.90;;;;;;4847646;29;20461;-78
2022/06/03 06:07:32;;;;;;;4.10;3.00;;;15.50;99.90;;;;;;4864078;29;20131;-77
2022/06/03 06:10:35;;;;;;;5.68;3.20;;;15.10;99.90;;;;;;4851930;29;20520;-77
2022/06/03 06:13:39;;;;;;;3.70;3.10;;;14.70;99.90;;;;;;4861665;29;20053;-77
2022/06/03 06:16:17;;;;;;;4.38;3.15;;;14.60;99.90;;;;;;4847129;29;20101;-77
2022/06/03 06:19:18;;;;;;;5.35;2.80;;;14.30;99.90;;;;;;4852593;29;20044;-77
2022/06/03 06:22:05;;;;;;;4.20;3.35;;;14.20;99.90;;;;;;4839766;29;20051;-77
2022/06/03 06:24:34;;;;;;;6.65;4.05;;;14.20;99.90;;;;;;4894112;29;20433;-77
2022/06/03 06:27:34;;;;;;;4.55;3.40;;;14.10;99.90;;;;;;4864796;29;20037;-78
2022/06/03 06:30:40;;;;;;;4.32;3.28;;;14.10;99.90;;;;;;4847733;29;20468;-77
2022/06/03 06:33:29;;;;;;;4.53;2.80;;;14.10;99.90;;;;;;4883124;29;20093;-77
2022/06/03 06:36:52;;;;;;;4.45;3.05;;;14.20;99.90;;;;;;4842316;29;20514;-77
2022/06/03 06:40:12;;;;;;;5.40;3.30;;;14.20;99.90;;;;;;4868857;29;20124;-77
2022/06/03 06:42:44;;;;;;;4.18;3.33;;;14.30;99.90;;;;;;4865579;29;20033;-76
2022/06/03 06:45:43;;;;;;;4.25;2.88;;;14.40;99.90;;;;;;4873501;29;20085;-77
2022/06/03 06:48:27;;;;;;;5.13;3.28;;;14.40;99.90;;;;;;4879834;29;20049;-78
2022/06/03 06:51:31;;;;;;;3.60;2.80;;;14.50;99.90;;;;;;4859820;29;20045;-77
2022/06/03 06:54:08;;;;;;;;;;;14.60;99.90;;;;;;4848597;29;20492;-77
2022/06/03 06:56:53;;;;;;;3.67;2.80;;;14.60;99.90;;;;;;4857124;29;19926;-77
2022/06/03 06:59:23;;;;;;;7.00;3.15;;;14.70;99.90;;;;;;4875311;29;20080;-76
2022/06/03 07:02:03;;;;;;;4.18;2.78;;;14.80;99.90;;;;;;4867399;29;20040;-77
2022/06/03 07:04:41;;;;;;;5.38;3.58;;;14.80;99.90;;;;;;4857845;29;20194;-77
2022/06/03 07:07:22;;;;;;;5.70;2.97;;;15.00;99.90;;;;;;4872200;29;20052;-77
2022/06/03 07:09:58;;;;;;;3.85;2.85;;;15.00;99.90;;;;;;4877054;29;20550;-77
2022/06/03 07:12:38;;;;;;;4.30;3.15;;;15.10;99.90;;;;;;4867313;29;20180;-77
2022/06/03 07:15:14;;;;;;;4.55;3.42;;;15.10;99.90;;;;;;4882836;29;20044;-77
2022/06/03 07:20:58;;;;;;;6.47;3.65;;;15.30;99.90;;;;;;4875340;29;20147;-77
2022/06/03 07:23:48;;;;;;;5.18;3.40;;;15.40;99.90;;;;;;4882553;29;20049;-77
2022/06/03 07:26:21;;;;;;;5.15;3.15;;;15.50;99.90;;;;;;4897919;29;20144;-77
2022/06/03 07:28:59;;;;;;;;;;;15.70;99.90;;;;;;4882903;29;20075;-77
2022/06/03 07:31:43;;;;;;;5.50;3.22;;;15.80;99.90;;;;;;4882179;29;19924;-77
2022/06/03 07:34:33;;;;;;;4.18;3.45;;;15.90;99.90;;;;;;4855257;29;20489;-77
2022/06/03 07:37:09;;;;;;;4.50;3.40;;;16.00;99.90;;;;;;4881951;29;20500;-77
2022/06/03 07:39:47;;;;;;;5.45;3.30;;;16.20;99.90;;;;;;4866535;29;20044;-77
2022/06/03 07:42:43;;;;;;;5.68;3.35;;;16.40;99.90;;;;;;4861916;29;20041;-78
2022/06/03 07:45:29;;;;;;;5.03;3.40;;;16.80;99.90;;;;;;4859229;29;20037;-78
2022/06/03 07:47:59;;;;;;;6.30;3.08;;;17.80;99.90;;;;;;4861614;29;20094;-78
2022/06/03 07:50:30;;;;;;;3.80;3.03;;;18.80;99.90;;;;;;4858255;29;20048;-79
2022/06/03 07:53:15;;;;;;;4.10;3.10;;;19.70;99.90;;;;;;4866095;29;20049;-78
2022/06/03 07:55:41;;;;;;;5.53;3.10;;;20.60;99.00;;;;;;4866358;29;20628;-78
2022/06/03 07:58:15;;;;;;;4.30;3.10;;;21.40;97.30;;;;;;4860933;29;20120;-78
2022/06/03 08:00:45;;;;;;;3.45;2.80;;;22.10;94.90;;;;;;4852344;29;20048;-78
2022/06/03 08:03:26;;;;;;;4.30;3.17;;;22.60;93.00;;;;;;4866160;29;20063;-78
2022/06/03 08:06:02;;;;;;;3.78;3.15;;;23.10;89.90;;;;;;4864143;29;20044;-78
2022/06/03 08:11:31;;;;;;;3.95;3.00;;;23.30;76.70;;;;;;4888960;29;20527;-79
2022/06/03 08:13:59;;;;;;;4.03;3.08;;;23.30;74.80;;;;;;4846431;29;20049;-79
2022/06/03 08:16:45;;;;;;;4.18;2.92;;;23.40;73.40;;;;;;4855854;29;20048;-78
2022/06/03 08:19:25;;;;;;;2.65;2.45;;;23.60;70.10;;;;;;4859095;29;20069;-80
2022/06/03 08:22:03;;;;;;;3.65;3.00;;;23.70;70.90;;;;;;4844039;29;20466;-78
2022/06/03 08:24:42;;;;;;;5.50;3.03;;;23.80;69.50;;;;;;4866293;29;20049;-78
2022/06/03 08:27:23;;;;;;;4.95;3.15;;;24.00;70.20;;;;;;4866315;29;20123;-78
2022/06/03 08:30:20;;;;;;;3.20;2.90;;;24.10;67.70;;;;;;4858200;29;20048;-78
2022/06/03 08:33:20;;;;;;;3.90;2.60;;;24.20;68.70;;;;;;4839935;29;20053;-78
2022/06/03 08:36:03;;;;;;;3.38;2.70;;;24.30;67.70;;;;;;4856462;29;20087;-79
2022/06/03 08:38:47;;;;;;;3.08;2.78;;;24.40;65.00;;;;;;4853377;29;20393;-78
2022/06/03 08:41:33;;;;;;;3.88;2.70;;;24.30;62.60;;;;;;4862616;29;20053;-78
2022/06/03 08:44:16;;;;;;;3.22;2.80;;;24.20;63.40;;;;;;4838410;29;20112;-76
2022/06/03 08:47:12;;;;;;;3.60;2.70;;;24.20;65.60;;;;;;4871881;29;20523;-77
2022/06/03 08:50:10;;;;;;;3.00;2.50;;;24.50;64.60;;;;;;4864503;29;20051;-77
2022/06/03 08:53:00;;;;;;;4.43;2.55;;;24.60;63.60;;;;;;4860349;29;20427;-78
2022/06/03 08:55:44;;;;;;;3.13;2.50;;;24.60;62.50;;;;;;4870274;29;20041;-78
2022/06/03 08:58:40;;;;;;;3.80;2.15;;;24.60;61.40;;;;;;4855596;29;20496;-77
2022/06/03 09:01:42;;;;;;;2.90;2.28;;;24.60;61.70;;;;;;4859872;29;20501;-77
2022/06/03 09:04:32;;;;;;;3.35;2.00;;;24.70;60.50;;;;;;4865171;29;20044;-77
2022/06/03 09:07:08;;;;;;;2.88;2.30;;;24.70;63.20;;;;;;4873279;29;20508;-77
2022/06/03 09:10:14;;;;;;;4.15;2.50;;;24.90;62.20;;;;;;4842145;29;20488;-77
2022/06/03 09:13:09;;;;;;;2.78;2.10;;;25.10;61.60;;;;;;4857065;29;20060;-78
2022/06/03 09:15:39;;;;;;;3.30;2.30;;;25.20;59.90;;;;;;4896420;29;20083;-78
2022/06/03 09:18:28;;;;;;;3.30;2.60;;;25.10;59.50;;;;;;4864421;29;20052;-78
2022/06/03 09:21:22;;;;;;;3.10;1.88;;;25.10;58.30;;;;;;4872805;29;20037;-77
2022/06/03 09:24:04;;;;;;;2.80;2.10;;;25.20;59.90;;;;;;4849987;29;20104;-78
2022/06/03 09:26:37;;;;;;;2.92;2.17;;;25.40;59.90;;;;;;4827459;29;20041;-77
2022/06/03 09:29:04;;;;;;;;;;;25.60;60.00;;;;;;4841894;29;20104;-78
2022/06/03 09:31:33;;;;;;;3.22;2.03;;;25.70;58.70;;;;;;4869894;29;19931;-78
2022/06/03 09:33:59;;;;;;;3.00;1.85;;;25.80;59.40;;;;;;4864802;29;20048;-77
2022/06/03 09:36:35;;;;;;;2.25;1.90;;;25.90;55.20;;;;;;4856964;29;20043;-77
2022/06/03 09:39:29;;;;;;;2.97;2.00;;;25.70;55.50;;;;;;4856256;29;20412;-77
2022/06/03 09:41:57;;;;;;;2.72;2.13;;;25.70;57.50;;;;;;4862432;29;20526;-77
2022/06/03 09:44:27;;;;;;;2.78;2.45;;;25.90;57.80;;;;;;4868663;29;20116;-78
2022/06/03 09:47:01;;;;;;;5.07;2.00;;;25.90;57.40;;;;;;4856406;29;20040;-77
2022/06/03 09:49:37;;;;;;;2.58;2.38;;;26.00;57.40;;;;;;4870414;29;20041;-78
2022/06/03 09:52:09;;;;;;;5.13;2.20;;;26.00;57.90;;;;;;4864325;29;20037;-77
2022/06/03 09:54:44;;;;;;;2.85;2.20;;;26.20;57.90;;;;;;4860271;29;20132;-77
2022/06/03 09:57:47;;;;;;;2.70;2.10;;;26.30;58.30;;;;;;4876363;29;20041;-78
2022/06/03 10:00:29;;;;;;;3.10;1.90;;;26.40;56.10;;;;;;4851614;29;20040;-77
2022/06/03 10:02:58;;;;;;;2.38;1.83;;;26.40;56.40;;;;;;4842437;29;20508;-77
2022/06/03 10:05:56;;;;;;;3.65;1.90;;;26.40;55.90;;;;;;4887825;29;20048;-79
2022/06/03 10:14:08;;;;;;;2.50;1.73;;;26.40;56.30;;;;;;4870761;29;20044;-76
2022/06/03 10:16:37;;;;;;;2.65;1.77;;;26.50;56.20;;;;;;4852306;29;20048;-75
2022/06/03 10:19:03;;;;;;;1.90;1.70;;;26.60;53.50;;;;;;4890711;29;20037;-76
2022/06/03 10:21:33;;;;;;;2.67;1.90;;;26.50;54.80;;;;;;4849794;29;20044;-75
2022/06/03 10:24:02;;;;;;;3.28;1.80;;;26.60;55.40;;;;;;4849679;29;20095;-75
2022/06/03 10:26:51;;;;;;;1.73;1.42;;;26.80;55.00;;;;;;4884851;29;20105;-76
2022/06/03 10:29:25;;;;;;;1.90;1.60;;;26.80;53.90;;;;;;4887852;29;20051;-75
2022/06/03 10:31:54;;;;;;;2.20;2.00;;;27.00;54.70;;;;;;4855269;29;20056;-75
2022/06/03 10:34:25;;;;;;;1.65;1.40;;;27.20;53.40;;;;;;4861576;29;20055;-75
2022/06/03 10:36:55;;;;;;;2.67;1.90;;;27.20;51.70;;;;;;4854574;29;20122;-75
2022/06/03 10:39:27;;;;;;;2.60;2.00;;;27.10;51.50;;;;;;4864642;29;20053;-75
2022/06/03 10:41:58;;;;;;;2.35;1.95;;;26.90;52.20;;;;;;4882875;29;20403;-75
2022/06/03 10:44:33;;;;;;;2.20;2.00;;;26.90;51.50;;;;;;4861227;29;20043;-75
2022/06/03 10:47:09;;;;;;;2.15;1.50;;;26.80;52.30;;;;;;4854802;29;20053;-75
2022/06/03 10:49:52;;;;;;;2.67;1.77;;;26.80;53.10;;;;;;4869512;29;20036;-75
2022/06/03 11:01:25;;;;;;;2.60;2.00;;;26.70;50.00;;;;;;4849315;29;20082;-75
2022/06/03 11:03:53;;;;;;;3.17;1.88;;;26.60;51.00;;;;;;4863477;29;20055;-75
2022/06/03 11:06:26;;;;;;;2.60;1.92;;;26.80;53.20;;;;;;4857234;29;20517;-75
2022/06/03 11:08:59;;;;;;;2.33;1.70;;;27.10;52.50;;;;;;4858831;29;20051;-75
2022/06/03 11:11:42;;;;;;;2.17;1.60;;;27.20;51.90;;;;;;4882249;29;20048;-75
2022/06/03 11:14:40;;;;;;;1.80;1.60;;;27.40;51.80;;;;;;4877020;29;20079;-75
2022/06/03 11:17:21;;;;;;;2.00;1.80;;;27.60;50.80;;;;;;4868331;29;20526;-75
2022/06/03 11:19:52;;;;;;;2.65;2.05;;;27.70;52.90;;;;;;4879058;29;20047;-75
2022/06/03 11:22:24;;;;;;;3.22;1.92;;;27.90;51.00;;;;;;4886614;29;20051;-75
2022/06/03 11:25:21;;;;;;;1.65;1.45;;;27.90;50.50;;;;;;4858261;29;20610;-75
2022/06/03 11:28:02;;;;;;;1.67;1.55;;;27.90;52.10;;;;;;4844799;29;20108;-75
2022/06/03 11:30:54;;;;;;;2.72;1.70;;;27.80;49.80;;;;;;4849833;29;20048;-74
2022/06/03 11:33:28;;;;;;;2.03;1.80;;;27.70;48.10;;;;;;4870867;29;20592;-75
2022/06/03 11:36:05;;;;;;;2.67;2.10;;;27.40;48.60;;;;;;4854773;29;20500;-74
2022/06/03 11:38:37;;;;;;;1.98;1.75;;;27.30;48.60;;;;;;4852925;29;20045;-76
2022/06/03 11:41:23;;;;;;;2.55;1.88;;;27.20;48.80;;;;;;4893410;29;20044;-75
2022/06/03 11:43:57;;;;;;;1.88;1.75;;;27.20;50.20;;;;;;4857179;29;20133;-75
2022/06/03 11:46:49;;;;;;;3.00;1.80;;;27.30;50.00;;;;;;4874861;29;20396;-76
2022/06/03 11:49:24;;;;;;;3.35;1.98;;;27.40;49.30;;;;;;4858558;29;20104;-76
2022/06/03 11:51:53;;;;;;;2.58;2.00;;;27.40;48.80;;;;;;4856236;29;20101;-75
2022/06/03 11:54:25;;;;;;;2.28;1.70;;;27.40;50.40;;;;;;4888650;29;20096;-75
2022/06/03 11:56:52;;;;;;;2.13;1.60;;;27.60;49.80;;;;;;4863836;29;20044;-76
2022/06/03 11:59:53;;;;;;;1.75;1.52;;;27.70;49.20;;;;;;4865350;29;20100;-75
2022/06/03 12:02:35;;;;;;;2.28;1.67;;;27.80;48.50;;;;;;4862983;29;20083;-75
2022/06/03 12:05:21;;;;;;;2.40;1.90;;;27.90;50.70;;;;;;4845587;29;20053;-75
2022/06/03 12:07:54;;;;;;;1.80;1.40;;;28.00;48.00;;;;;;4869935;29;20052;-75
2022/06/03 12:10:25;;;;;;;2.45;1.80;;;28.00;49.10;;;;;;4862605;29;20055;-76
2022/06/03 12:13:19;;;;;;;1.90;1.50;;;27.80;49.70;;;;;;4867276;29;20402;-76
2022/06/03 12:15:57;;;;;;;2.30;1.50;;;27.90;50.90;;;;;;4847953;29;20108;-75
2022/06/03 12:18:36;;;;;;;3.05;1.73;;;27.90;49.80;;;;;;4854069;29;20132;-75
2022/06/03 12:21:38;;;;;;;2.75;1.60;;;27.80;49.10;;;;;;4863272;29;20049;-76
2022/06/03 12:24:31;;;;;;;2.15;1.70;;;27.60;49.10;;;;;;4861359;29;20313;-77
2022/06/03 12:27:04;;;;;;;3.25;1.70;;;27.50;49.20;;;;;;4858702;29;20048;-75
2022/06/03 12:29:38;;;;;;;2.08;1.83;;;27.40;48.70;;;;;;4879236;29;20049;-75
2022/06/03 12:32:33;;;;;;;2.47;1.80;;;27.40;50.40;;;;;;4848024;29;20132;-76
2022/06/03 12:35:38;;;;;;;3.22;2.05;;;27.60;48.80;;;;;;4861791;29;20121;-76
2022/06/03 12:38:22;;;;;;;2.63;1.70;;;27.60;49.10;;;;;;4849106;29;20500;-74
2022/06/03 12:40:50;;;;;;;3.38;1.90;;;27.20;48.20;;;;;;4853163;29;20456;-75
2022/06/03 12:43:28;;;;;;;2.17;1.75;;;26.70;48.40;;;;;;4844718;29;20123;-74
2022/06/03 12:46:07;;;;;;;2.88;1.75;;;25.80;48.70;;;;;;4844975;29;20384;-75
2022/06/03 12:48:53;;;;;;;3.17;1.90;;;25.40;50.30;;;;;;4843961;29;20523;-74
2022/06/03 12:51:28;;;;;;;2.20;1.83;;;25.50;50.50;;;;;;4865041;29;20418;-74
2022/06/03 12:53:58;;;;;;;3.20;1.70;;;25.70;52.30;;;;;;4855228;29;20047;-74
2022/06/03 12:56:51;;;;;;;1.77;1.45;;;26.10;52.60;;;;;;4879646;29;20040;-75
2022/06/03 12:59:17;;;;;;;;;;;26.40;50.30;;;;;;4851424;29;20090;-75
2022/06/03 13:02:04;;;;;;;3.00;1.75;;;26.50;50.50;;;;;;4870872;29;19954;-74
2022/06/03 13:05:04;;;;;;;3.20;1.95;;;26.50;50.20;;;;;;4854118;29;20064;-74
2022/06/03 13:07:33;;;;;;;3.10;1.70;;;26.60;50.60;;;;;;4827587;29;20416;-74
2022/06/03 13:10:09;;;;;;;2.25;1.85;;;26.70;50.50;;;;;;4851404;29;20036;-74
2022/06/03 13:12:34;;;;;;;3.30;1.90;;;26.70;49.50;;;;;;4889551;29;20040;-74
2022/06/03 13:15:22;;;;;;;3.40;1.63;;;26.60;48.90;;;;;;4879960;29;20044;-74
2022/06/03 13:17:54;;;;;;;1.55;1.40;;;26.40;49.60;;;;;;4842596;29;20045;-74
2022/06/03 13:20:40;;;;;;;2.28;1.92;;;26.40;50.40;;;;;;4849107;29;20097;-75
2022/06/03 13:23:33;;;;;;;1.83;1.50;;;26.60;50.50;;;;;;4861925;29;20098;-75
2022/06/03 13:26:23;;;;;;;2.95;1.95;;;26.70;50.80;;;;;;4863766;29;20208;-75
2022/06/03 13:28:56;;;;;;;3.05;1.70;;;26.90;50.90;;;;;;4845438;29;20056;-75
2022/06/03 13:31:26;;;;;;;2.63;1.52;;;26.80;51.10;;;;;;4864836;29;20460;-74
2022/06/03 13:34:10;;;;;;;1.85;1.75;;;26.70;48.90;;;;;;4837202;29;20132;-75
2022/06/03 13:36:47;;;;;;;1.85;1.30;;;26.50;48.50;;;;;;4849666;29;20040;-75
2022/06/03 13:39:28;;;;;;;2.17;1.98;;;26.40;49.70;;;;;;4858598;29;20165;-75
2022/06/03 13:45:22;;;;;;;3.10;1.70;;;26.40;50.10;;;;;;4886725;29;20057;-75
2022/06/03 13:47:52;;;;;;;1.85;1.50;;;26.60;50.10;;;;;;4849181;29;20543;-75
2022/06/03 13:50:27;;;;;;;2.00;1.80;;;26.60;50.50;;;;;;4850558;29;20101;-75
2022/06/03 13:52:56;;;;;;;1.63;1.52;;;26.70;49.10;;;;;;4860779;29;20132;-74
2022/06/03 13:55:44;;;;;;;3.47;1.48;;;26.30;48.50;;;;;;4857779;29;20402;-75
2022/06/03 13:58:12;;;;;;;2.13;1.70;;;25.90;49.50;;;;;;4831376;29;20048;-75
2022/06/03 14:00:50;;;;;;;3.17;1.75;;;26.00;50.20;;;;;;4848008;29;20040;-75
2022/06/03 14:03:34;;;;;;;1.80;1.50;;;26.00;50.20;;;;;;4866486;29;20045;-75
2022/06/03 14:06:06;;;;;;;2.67;1.60;;;26.10;51.70;;;;;;4858799;29;20120;-75
2022/06/03 14:08:47;;;;;;;3.47;1.47;;;26.20;52.20;;;;;;4874877;29;20036;-75
2022/06/03 14:11:26;;;;;;;2.00;1.30;;;26.30;52.20;;;;;;4849396;29;20132;-75
2022/06/03 14:14:23;;;;;;;1.98;1.50;;;26.40;51.10;;;;;;4855812;29;20051;-75
2022/06/03 14:16:58;;;;;;;1.77;1.25;;;26.40;48.80;;;;;;4846950;29;20049;-76
2022/06/03 14:22:33;;;;;;;2.67;1.70;;;26.30;50.10;;;;;;4891732;29;20056;-75
2022/06/03 14:25:28;;;;;;;1.75;1.60;;;26.30;50.20;;;;;;4858711;29;20080;-75
2022/06/03 14:28:23;;;;;;;2.30;1.50;;;26.40;49.00;;;;;;4862470;29;20045;-75
2022/06/03 14:31:00;;;;;;;3.80;1.48;;;26.40;49.00;;;;;;4854981;29;20056;-76
2022/06/03 14:33:31;;;;;;;1.50;1.40;;;26.30;50.30;;;;;;4849002;29;20124;-75
2022/06/03 14:36:01;;;;;;;3.15;1.67;;;26.40;49.10;;;;;;4855720;29;20092;-75
2022/06/03 14:38:48;;;;;;;2.47;1.40;;;26.30;47.60;;;;;;4855236;29;20120;-75
2022/06/03 14:41:21;;;;;;;3.95;1.80;;;26.10;48.70;;;;;;4851567;29;20057;-75
2022/06/03 14:43:50;;;;;;;1.73;1.30;;;25.90;48.60;;;;;;4874459;29;20512;-75
2022/06/03 14:46:27;;;;;;;1.48;1.25;;;25.80;49.60;;;;;;4887970;29;20048;-75
2022/06/03 14:49:04;;;;;;;3.10;1.55;;;25.80;50.80;;;;;;4875024;29;20127;-75